createdAt,value
2022-10-17T00:01:53.702Z,100807.78
2022-10-17T00:04:24.516Z,100810.88
2022-10-17T00:06:53.311Z,100818.22
2022-10-17T00:09:27.145Z,100818.28
2022-10-17T00:11:54.612Z,100812.44
2022-10-17T00:14:24.185Z,100820.59
2022-10-17T00:17:21.702Z,100817.31
2022-10-17T00:20:12.060Z,100825.94
2022-10-17T00:23:01.064Z,100798.59
2022-10-17T00:25:36.145Z,100825.22
2022-10-17T00:29:20.937Z,100842.25
2022-10-17T00:32:50.632Z,100842.78
2022-10-17T00:49:09.372Z,100857.38
2022-10-17T00:52:13.997Z,100846.81
2022-10-17T01:02:11.983Z,100808.44
2022-10-17T01:05:02.869Z,100847.81
2022-10-17T01:14:54.780Z,100856.00
2022-10-17T01:18:16.437Z,100853.78
2022-10-17T01:21:20.484Z,100854.59
2022-10-17T01:24:13.328Z,100851.25
2022-10-17T01:27:32.843Z,100856.50
2022-10-17T01:30:22.930Z,100852.38
2022-10-17T01:33:18.789Z,100843.56
2022-10-17T01:39:29.990Z,100848.06
2022-10-17T01:42:35.036Z,100842.34
2022-10-17T01:45:25.848Z,100852.47
2022-10-17T01:48:10.493Z,100851.44
2022-10-17T01:50:51.495Z,100850.84
2022-10-17T01:54:01.068Z,100847.72
2022-10-17T01:56:39.258Z,100852.59
2022-10-17T01:59:42.467Z,100849.09
2022-10-17T02:02:17.652Z,100851.09
2022-10-17T02:04:52.656Z,100843.06
2022-10-17T02:07:27.124Z,100839.81
2022-10-17T02:09:57.260Z,100840.06
2022-10-17T02:12:51.992Z,100846.22
2022-10-17T02:15:54.807Z,100853.06
2022-10-17T02:18:44.195Z,100844.47
2022-10-17T02:21:37.154Z,100840.53
2022-10-17T02:24:49.130Z,100839.84
2022-10-17T02:27:40.626Z,100838.00
2022-10-17T02:30:42.154Z,100838.44
2022-10-17T02:34:04.480Z,100837.09
2022-10-17T02:36:56.560Z,100842.84
2022-10-17T02:39:39.197Z,100843.03
2022-10-17T02:42:13.720Z,100854.88
2022-10-17T02:44:46.050Z,100860.41
2022-10-17T02:47:50.798Z,100854.16
2022-10-17T02:50:26.741Z,100857.88
2022-10-17T02:53:03.297Z,100848.72
2022-10-17T02:55:44.362Z,100856.22
2022-10-17T02:58:24.031Z,100851.09
2022-10-17T03:00:57.202Z,100801.78
2022-10-17T03:03:43.148Z,100850.31
2022-10-17T03:06:14.119Z,100837.25
2022-10-17T03:08:44.033Z,100849.91
2022-10-17T03:11:17.771Z,100849.84
2022-10-17T03:13:47.861Z,100852.84
2022-10-17T03:16:18.032Z,100845.84
2022-10-17T03:18:59.573Z,100859.28
2022-10-17T03:21:31.951Z,100859.78
2022-10-17T03:24:03.146Z,100831.75
2022-10-17T03:26:30.039Z,100863.25
2022-10-17T03:29:00.028Z,100870.50
2022-10-17T03:31:31.036Z,100873.88
2022-10-17T03:34:15.272Z,100868.28
2022-10-17T03:36:55.288Z,100873.09
2022-10-17T03:39:28.988Z,100878.25
2022-10-17T03:42:01.047Z,100882.47
2022-10-17T03:44:32.095Z,100885.59
2022-10-17T03:46:59.802Z,100880.09
2022-10-17T03:49:40.433Z,100884.34
2022-10-17T03:52:48.464Z,100892.38
2022-10-17T03:56:09.328Z,100887.41
2022-10-17T03:59:08.866Z,100889.47
2022-10-17T04:01:57.474Z,100856.84
2022-10-17T04:04:48.234Z,100888.59
2022-10-17T04:07:38.156Z,100885.03
2022-10-17T04:10:06.003Z,100892.94
2022-10-17T04:12:59.642Z,100895.09
2022-10-17T04:15:49.764Z,100858.19
2022-10-17T04:18:22.864Z,100889.91
2022-10-17T04:20:58.762Z,100900.66
2022-10-17T04:24:06.115Z,100911.56
2022-10-17T04:27:20.260Z,100911.06
2022-10-17T04:30:12.729Z,100913.94
2022-10-17T04:33:04.439Z,100913.41
2022-10-17T04:36:23.707Z,100911.56
2022-10-17T04:41:42.016Z,100910.47
2022-10-17T04:44:22.957Z,100879.16
2022-10-17T04:47:20.393Z,100917.78
2022-10-17T04:50:20.906Z,100921.22
2022-10-17T04:53:33.918Z,100922.75
2022-10-17T04:56:23.476Z,100915.63
2022-10-17T04:59:16.376Z,100917.63
2022-10-17T05:02:29.791Z,100918.94
2022-10-17T05:05:26.508Z,100925.97
2022-10-17T05:08:20.476Z,100929.81
2022-10-17T05:11:14.675Z,100926.56
2022-10-17T05:14:22.823Z,100930.69
2022-10-17T05:17:11.216Z,100926.91
2022-10-17T05:19:49.573Z,100928.75
2022-10-17T05:22:39.679Z,100910.09
2022-10-17T05:25:50.764Z,100924.88
2022-10-17T05:28:44.147Z,100925.69
2022-10-17T05:31:45.480Z,100900.63
2022-10-17T05:34:42.828Z,100931.06
2022-10-17T05:37:54.359Z,100941.03
2022-10-17T05:40:46.660Z,100950.22
2022-10-17T05:43:45.180Z,100954.66
2022-10-17T05:46:54.101Z,100958.72
2022-10-17T05:50:06.536Z,100925.75
2022-10-17T05:53:17.251Z,100959.19
2022-10-17T05:56:07.249Z,100960.78
2022-10-17T05:58:57.397Z,100948.91
2022-10-17T06:01:49.780Z,100947.38
2022-10-17T06:04:45.643Z,100956.50
2022-10-17T06:07:13.438Z,100970.91
2022-10-17T06:10:27.195Z,100937.25
2022-10-17T06:13:41.573Z,100965.75
2022-10-17T06:16:30.099Z,100970.88
2022-10-17T06:19:37.789Z,100972.09
2022-10-17T06:22:19.786Z,100968.63
2022-10-17T06:24:59.983Z,100982.38
2022-10-17T06:27:50.710Z,100974.31
2022-10-17T06:30:41.522Z,100978.38
2022-10-17T06:33:28.880Z,100985.84
2022-10-17T06:36:18.549Z,100986.56
2022-10-17T06:39:00.245Z,100985.22
2022-10-17T06:41:43.953Z,100989.22
2022-10-17T06:44:49.926Z,100978.31
2022-10-17T06:47:38.737Z,100974.94
2022-10-17T06:50:27.170Z,101009.09
2022-10-17T06:53:05.545Z,101003.78
2022-10-17T06:55:39.064Z,101008.19
2022-10-17T06:58:18.839Z,101012.84
2022-10-17T07:00:48.474Z,101023.91
2022-10-17T07:03:44.028Z,101018.97
2022-10-17T07:06:19.425Z,101028.38
2022-10-17T07:08:51.360Z,101027.06
2022-10-17T07:11:21.341Z,101006.41
2022-10-17T07:14:08.749Z,101036.50
2022-10-17T07:17:16.255Z,101033.28
2022-10-17T07:20:09.546Z,101034.28
2022-10-17T07:22:56.967Z,101046.72
2022-10-17T07:25:45.309Z,101019.31
2022-10-17T07:28:55.050Z,101046.25
2022-10-17T07:31:49.131Z,101046.78
2022-10-17T07:34:31.636Z,101043.53
2022-10-17T07:37:07.231Z,101034.16
2022-10-17T07:39:57.322Z,101044.19
2022-10-17T07:42:42.908Z,101048.06
2022-10-17T07:45:32.536Z,101065.97
2022-10-17T07:48:18.430Z,101063.81
2022-10-17T07:51:33.719Z,101065.47
2022-10-17T07:54:25.299Z,101055.22
2022-10-17T07:57:27.628Z,101054.97
2022-10-17T08:00:35.319Z,101053.03
2022-10-17T08:03:11.256Z,101075.53
2022-10-17T08:06:11.024Z,101049.31
2022-10-17T08:09:04.066Z,101073.53
2022-10-17T08:12:00.148Z,101069.19
2022-10-17T08:14:58.009Z,101061.81
2022-10-17T08:17:51.747Z,101061.75
2022-10-17T08:20:41.752Z,101061.56
2022-10-17T08:23:38.019Z,101049.63
2022-10-17T08:26:25.514Z,101053.06
2022-10-17T08:29:32.997Z,101055.66
2022-10-17T08:32:33.021Z,101057.44
2022-10-17T08:35:41.109Z,101065.72
2022-10-17T08:38:35.356Z,101062.28
2022-10-17T08:41:40.324Z,101066.16
2022-10-17T08:44:16.440Z,101079.13
2022-10-17T08:47:12.735Z,101050.28
2022-10-17T08:50:04.420Z,101080.06
2022-10-17T08:53:16.297Z,101075.31
2022-10-17T08:56:15.360Z,101074.03
2022-10-17T09:02:15.920Z,101088.00
2022-10-17T09:05:13.786Z,101084.16
2022-10-17T09:08:32.048Z,101078.19
2022-10-17T09:11:40.279Z,101066.09
2022-10-17T09:14:32.988Z,101073.56
2022-10-17T09:17:20.625Z,101076.72
2022-10-17T09:20:30.077Z,101060.66
2022-10-17T09:23:28.611Z,101076.53
2022-10-17T09:26:16.249Z,101065.66
2022-10-17T09:28:59.681Z,101072.63
2022-10-17T09:31:33.820Z,101076.69
2022-10-17T09:34:31.151Z,101079.69
2022-10-17T09:37:14.258Z,101049.34
2022-10-17T09:40:05.248Z,101075.63
2022-10-17T09:42:42.215Z,101073.00
2022-10-17T09:45:30.402Z,101085.94
2022-10-17T09:49:05.286Z,101084.44
2022-10-17T09:51:45.802Z,101081.22
2022-10-17T09:54:34.808Z,101083.56
2022-10-17T09:57:45.289Z,101085.47
2022-10-17T10:00:46.584Z,101032.03
2022-10-17T10:03:38.991Z,101090.34
2022-10-17T10:06:43.061Z,101084.00
2022-10-17T10:09:31.036Z,101084.78
2022-10-17T10:12:23.321Z,101051.94
2022-10-17T10:14:58.077Z,101081.91
2022-10-17T10:17:48.355Z,101085.88
2022-10-17T10:20:35.535Z,101091.03
2022-10-17T11:58:21.194Z,101102.94
2022-10-17T12:01:10.152Z,101103.84
2022-10-17T12:04:04.542Z,101072.56
2022-10-17T12:07:09.471Z,101099.16
2022-10-17T12:09:42.549Z,101101.50
2022-10-17T12:12:36.114Z,101093.16
2022-10-17T12:15:35.803Z,101095.94
2022-10-17T12:18:22.865Z,101092.81
2022-10-17T12:21:01.847Z,101099.50
2022-10-17T12:23:36.652Z,101086.31
2022-10-17T12:26:45.771Z,101098.72
2022-10-17T12:29:36.957Z,101075.22
2022-10-17T12:32:46.890Z,101086.63
2022-10-17T12:35:38.137Z,101082.25
2022-10-17T12:38:31.091Z,101073.75
2022-10-17T12:41:03.150Z,101060.56
2022-10-17T12:43:47.416Z,101062.03
2022-10-17T12:47:12.376Z,101075.63
2022-10-17T12:52:39.184Z,101071.59
2022-10-17T12:55:23.799Z,101078.81
2022-10-17T12:57:53.269Z,101075.75
2022-10-17T13:00:59.818Z,101054.16
2022-10-17T13:06:55.488Z,101089.41
2022-10-17T13:09:51.008Z,101087.56
2022-10-17T13:12:34.036Z,101084.81
2022-10-17T13:15:26.018Z,101095.38
2022-10-17T13:18:12.249Z,101089.16
2022-10-17T13:21:15.051Z,101062.09
2022-10-17T13:27:07.235Z,101088.13
2022-10-17T13:29:49.818Z,101088.78
2022-10-17T13:32:45.371Z,101093.69
2022-10-17T13:35:41.906Z,101070.19
2022-10-17T13:38:27.986Z,101094.34
2022-10-17T13:41:36.525Z,101099.16
2022-10-17T13:47:40.052Z,101074.28
2022-10-17T13:50:47.983Z,101103.88
2022-10-17T13:53:29.853Z,101104.38
2022-10-17T13:56:30.256Z,101109.41
2022-10-17T13:59:32.657Z,101104.41
2022-10-17T14:02:09.661Z,101098.09
2022-10-17T14:05:18.938Z,101107.53
2022-10-17T14:08:14.308Z,101102.16
2022-10-17T14:11:04.546Z,101104.81
2022-10-17T14:13:44.738Z,101102.09
2022-10-17T14:16:47.913Z,101106.97
2022-10-17T14:19:46.026Z,101107.56
2022-10-17T14:22:37.328Z,101102.22
2022-10-17T14:25:49.721Z,101112.00
2022-10-17T14:28:18.803Z,101110.28
2022-10-17T14:31:02.321Z,101115.22
2022-10-17T14:33:56.869Z,101123.44
2022-10-17T14:36:45.784Z,101126.50
2022-10-17T14:39:37.010Z,101122.72
2022-10-17T14:43:01.834Z,101121.25
2022-10-17T14:45:52.016Z,101127.53
2022-10-17T14:48:43.439Z,101129.44
2022-10-17T14:51:50.403Z,101130.78
2022-10-17T14:54:33.931Z,101143.81
2022-10-17T14:57:27.006Z,101143.59
2022-10-17T15:00:40.051Z,101140.41
2022-10-17T15:03:22.003Z,101136.38
2022-10-17T15:06:27.138Z,101142.53
2022-10-17T15:08:56.634Z,101157.44
2022-10-17T15:11:28.189Z,101155.94
2022-10-17T15:14:08.068Z,101162.56
2022-10-17T15:16:45.688Z,101165.06
2022-10-17T15:19:28.430Z,101168.63
2022-10-17T15:22:13.547Z,101163.22
2022-10-17T15:24:55.665Z,101159.09
2022-10-17T15:27:35.576Z,101157.44
2022-10-17T15:30:27.889Z,101157.66
2022-10-17T15:33:17.490Z,101159.81
2022-10-17T15:36:02.373Z,101154.94
2022-10-17T15:38:51.103Z,101153.91
2022-10-17T15:41:32.236Z,101162.00
2022-10-17T15:44:13.010Z,101165.44
2022-10-17T15:46:46.574Z,101168.00
2022-10-17T15:49:26.149Z,101165.44
2022-10-17T15:52:11.064Z,101171.13
2022-10-17T15:55:05.475Z,101166.88
2022-10-17T15:57:41.607Z,101164.66
2022-10-17T16:00:23.280Z,101176.38
2022-10-17T16:03:01.978Z,101175.34
2022-10-17T16:05:51.931Z,101174.78
2022-10-17T16:08:41.974Z,101178.16
2022-10-17T16:11:19.315Z,101187.44
2022-10-17T16:14:02.779Z,101188.19
2022-10-17T16:16:34.056Z,101190.41
2022-10-17T16:19:06.357Z,101191.56
2022-10-17T16:21:42.786Z,101189.44
2022-10-17T16:24:14.363Z,101187.72
2022-10-17T16:26:44.407Z,101186.44
2022-10-17T16:29:43.616Z,101184.72
2022-10-17T16:32:11.189Z,101185.22
2022-10-17T16:34:56.431Z,101190.25
2022-10-17T16:37:56.080Z,101199.50
2022-10-17T16:40:29.737Z,101196.75
2022-10-17T16:42:59.070Z,101194.16
2022-10-17T16:45:28.923Z,101202.72
2022-10-17T16:47:59.667Z,101203.03
2022-10-17T16:50:31.832Z,101195.84
2022-10-17T16:52:59.134Z,101195.03
2022-10-17T16:55:28.464Z,101208.50
2022-10-17T16:57:56.157Z,101197.47
2022-10-17T17:00:30.669Z,101210.66
2022-10-17T17:03:27.275Z,101211.03
2022-10-17T17:06:00.390Z,101210.66
2022-10-17T17:08:52.919Z,101223.63
2022-10-17T17:11:44.085Z,101216.66
2022-10-17T17:14:20.476Z,101213.31
2022-10-17T17:17:48.429Z,101224.06
2022-10-17T17:20:24.406Z,101225.75
2022-10-17T17:23:18.718Z,101230.16
2022-10-17T17:25:51.632Z,101196.16
2022-10-17T17:28:20.893Z,101230.53
2022-10-17T17:31:04.299Z,101233.06
2022-10-17T17:33:31.432Z,101231.47
2022-10-17T17:36:29.944Z,101232.47
2022-10-17T17:39:26.778Z,101200.50
2022-10-17T17:42:14.506Z,101205.28
2022-10-17T17:44:50.372Z,101228.72
2022-10-17T17:47:19.827Z,101221.53
2022-10-17T17:50:19.250Z,101235.34
2022-10-17T17:53:24.128Z,101243.31
2022-10-17T17:56:16.939Z,101252.06
2022-10-17T17:58:49.406Z,101251.16
2022-10-17T18:01:38.189Z,101253.00
2022-10-17T18:04:17.107Z,101264.44
2022-10-17T18:07:15.187Z,101257.13
2022-10-17T18:09:51.713Z,101258.94
2022-10-17T18:12:39.244Z,101266.09
2022-10-17T18:15:13.403Z,101262.06
2022-10-17T18:17:44.423Z,101259.44
2022-10-17T18:20:21.561Z,101252.59
2022-10-17T18:23:06.675Z,101261.16
2022-10-17T18:25:38.044Z,101259.06
2022-10-17T18:28:08.793Z,101233.81
2022-10-17T18:30:38.779Z,101263.72
2022-10-17T18:33:13.684Z,101255.19
2022-10-17T18:36:07.320Z,101254.41
2022-10-17T18:38:55.240Z,101205.53
2022-10-17T18:41:43.320Z,101255.47
2022-10-17T18:44:12.948Z,101256.56
2022-10-17T18:49:21.504Z,101266.94
2022-10-17T18:51:51.718Z,101252.53
2022-10-17T18:54:36.518Z,101256.09
2022-10-17T18:57:06.538Z,101245.13
2022-10-17T18:59:51.663Z,101253.56
2022-10-17T19:02:38.127Z,101258.28
2022-10-17T19:05:10.884Z,101260.38
2022-10-17T19:07:44.691Z,101257.13
2022-10-17T19:10:22.296Z,101259.34
2022-10-17T19:12:49.836Z,101204.69
2022-10-17T19:15:23.754Z,101260.91
2022-10-17T19:17:58.412Z,101261.94
2022-10-17T19:20:39.401Z,101255.63
2022-10-17T19:23:16.806Z,101248.09
2022-10-17T19:26:02.963Z,101250.31
2022-10-17T19:28:57.874Z,101223.88
2022-10-17T19:31:31.885Z,101260.69
2022-10-17T19:34:01.691Z,101262.63
2022-10-17T19:37:10.078Z,101260.22
2022-10-17T19:39:52.556Z,101254.91
2022-10-17T19:42:21.331Z,101257.31
2022-10-17T19:44:54.122Z,101247.50
2022-10-17T19:47:39.273Z,101249.59
2022-10-17T19:50:15.358Z,101254.16
2022-10-17T19:52:42.543Z,101245.25
2022-10-17T19:55:18.106Z,101236.78
2022-10-17T19:57:48.118Z,101241.97
2022-10-17T20:00:48.613Z,101250.09
2022-10-17T20:03:28.153Z,101242.44
2022-10-17T20:06:06.679Z,101231.00
2022-10-17T20:08:34.169Z,101237.09
2022-10-17T20:11:30.365Z,101239.41
2022-10-17T20:14:06.975Z,101242.91
2022-10-17T20:16:38.642Z,101241.13
2022-10-17T20:19:16.811Z,101230.28
2022-10-17T20:22:05.519Z,101235.03
2022-10-17T20:24:42.676Z,101235.44
2022-10-17T20:27:55.467Z,101242.94
2022-10-17T20:30:24.275Z,101248.72
2022-10-17T20:32:58.653Z,101235.69
2022-10-17T20:35:46.509Z,101203.94
2022-10-17T20:38:37.001Z,101241.59
2022-10-17T20:41:09.604Z,101242.25
2022-10-17T20:43:46.113Z,101249.56
2022-10-17T20:46:36.915Z,101252.38
2022-10-17T20:49:22.468Z,101255.00
2022-10-17T20:51:49.624Z,101258.03
2022-10-17T20:54:53.875Z,101268.59
2022-10-17T20:57:29.623Z,101264.38
2022-10-17T21:00:20.069Z,101265.59
2022-10-17T21:05:25.134Z,101280.97
2022-10-17T21:08:02.878Z,101266.63
2022-10-17T21:10:35.278Z,101290.91
2022-10-17T21:13:03.275Z,101273.03
2022-10-17T21:15:33.606Z,101297.97
2022-10-17T21:18:03.884Z,101290.59
2022-10-17T21:20:31.958Z,101293.59
2022-10-17T21:23:05.289Z,101280.94
2022-10-17T21:25:49.599Z,101234.50
2022-10-17T21:28:28.535Z,101291.09
2022-10-17T21:31:18.645Z,101294.03
2022-10-17T21:34:12.639Z,101300.56
2022-10-17T21:36:43.920Z,101289.47
2022-10-17T21:39:14.812Z,101284.78
2022-10-17T21:41:48.407Z,101282.88
2022-10-17T21:44:36.634Z,101286.81
2022-10-17T21:47:17.229Z,101286.19
2022-10-17T21:49:50.839Z,101271.03
2022-10-17T21:52:19.602Z,101248.84
2022-10-17T21:54:55.314Z,101283.81
2022-10-17T21:57:26.414Z,101277.78
2022-10-17T22:00:15.901Z,101242.56
2022-10-17T22:02:45.737Z,101273.50
2022-10-17T22:05:22.516Z,101274.25
2022-10-17T22:07:57.322Z,101281.84
2022-10-17T22:10:27.808Z,101278.13
2022-10-17T22:12:55.213Z,101276.84
2022-10-17T22:15:34.004Z,101270.44
2022-10-17T22:18:21.563Z,101272.06
2022-10-17T22:21:06.198Z,101271.38
2022-10-17T22:23:40.792Z,101270.50
2022-10-17T22:26:18.458Z,101264.59
2022-10-17T22:29:09.059Z,101264.69
2022-10-17T22:31:43.865Z,101251.56
2022-10-17T22:34:22.519Z,101250.41
2022-10-17T22:36:56.277Z,101253.63
2022-10-17T22:39:23.415Z,101262.38
2022-10-17T22:41:56.130Z,101267.13
2022-10-17T22:44:46.729Z,101257.16
2022-10-17T22:47:21.475Z,101256.34
2022-10-17T22:49:52.039Z,101275.16
2022-10-17T22:52:29.018Z,101273.25
2022-10-17T22:54:57.650Z,101274.25
2022-10-17T22:57:30.947Z,101267.94
2022-10-17T23:00:08.605Z,101260.03
2022-10-17T23:02:36.212Z,101263.47
2022-10-17T23:05:05.663Z,101234.16
2022-10-17T23:07:40.691Z,101249.38
2022-10-17T23:10:13.561Z,101256.63
2022-10-17T23:12:58.617Z,101260.97
2022-10-17T23:15:32.294Z,101238.72
2022-10-17T23:21:01.479Z,101243.22
2022-10-17T23:23:29.101Z,101244.66
2022-10-17T23:26:17.906Z,101234.09
2022-10-17T23:28:44.984Z,101237.53
2022-10-17T23:31:22.222Z,101231.09
2022-10-17T23:33:50.709Z,101233.78
2022-10-17T23:36:42.598Z,101221.69
2022-10-17T23:39:21.391Z,101229.56
2022-10-17T23:42:18.807Z,101229.72
2022-10-17T23:44:56.923Z,101228.13
2022-10-17T23:47:32.259Z,101225.69
2022-10-17T23:50:10.568Z,101237.94
2022-10-17T23:53:03.479Z,101230.28
2022-10-17T23:55:41.160Z,101235.91
2022-10-17T23:58:11.395Z,101237.44
